Time,TemperatureF,DewpointF,PressureIn,WindDirection,WindDirectionDegrees,WindSpeedMPH,WindSpeedGustMPH,Humidity,HourlyPrecipIn,Conditions,Clouds,dailyrainin,SoftwareType,DateUTC
2013-02-06 00:00:00,29.7,26.0,29.88,NE,44,0.0,0.0,86,0.00,,,0.01,Wunderground v.1.15,2013-02-06 05:00:00,
2013-02-06 00:05:00,29.7,26.0,29.88,NE,44,0.0,0.0,86,0.00,,,0.00,Wunderground v.1.15,2013-02-06 05:05:00,
2013-02-06 00:10:00,29.5,25.8,29.88,NE,44,0.0,0.0,86,0.00,,,0.00,Wunderground v.1.15,2013-02-06 05:10:00,
2013-02-06 00:15:00,29.5,25.8,29.88,NE,44,0.0,0.0,86,0.00,,,0.00,Wunderground v.1.15,2013-02-06 05:15:00,
2013-02-06 00:25:00,29.5,25.8,29.88,NE,44,0.0,0.0,86,0.00,,,0.00,Wunderground v.1.15,2013-02-06 05:25:00,
2013-02-06 00:35:00,29.5,26.1,29.88,NE,44,0.0,0.0,87,0.00,,,0.00,Wunderground v.1.15,2013-02-06 05:35:00,
2013-02-06 00:40:00,29.5,26.1,29.88,NE,44,0.0,0.0,87,0.00,,,0.00,Wunderground v.1.15,2013-02-06 05:40:00,
2013-02-06 00:45:00,29.5,26.1,29.88,NE,44,0.0,0.0,87,0.00,,,0.00,Wunderground v.1.15,2013-02-06 05:45:00,
2013-02-06 00:55:00,29.5,26.1,29.88,NE,44,0.0,0.0,87,0.00,,,0.00,Wunderground v.1.15,2013-02-06 05:55:00,
2013-02-06 01:05:00,29.5,26.1,29.88,NE,44,0.0,0.0,87,0.00,,,0.00,Wunderground v.1.15,2013-02-06 06:05:00,
2013-02-06 01:15:00,29.5,26.1,29.88,NE,44,0.0,0.0,87,0.00,,,0.00,Wunderground v.1.15,2013-02-06 06:15:00,
2013-02-06 01:25:00,29.5,26.1,29.88,NE,44,0.0,2.0,87,0.00,,,0.00,Wunderground v.1.15,2013-02-06 06:25:00,
2013-02-06 01:30:00,29.5,26.1,29.88,NE,44,0.0,1.0,87,0.00,,,0.00,Wunderground v.1.15,2013-02-06 06:30:00,
2013-02-06 01:35:00,29.5,26.1,29.88,NE,44,0.0,1.0,87,0.00,,,0.00,Wunderground v.1.15,2013-02-06 06:35:00,
2013-02-06 01:45:00,29.5,26.1,29.88,NE,44,0.0,0.0,87,0.00,,,0.00,Wunderground v.1.15,2013-02-06 06:45:00,
2013-02-06 01:55:00,29.4,26.0,29.88,NE,44,0.0,1.0,87,0.00,,,0.00,Wunderground v.1.15,2013-02-06 06:55:00,
2013-02-06 02:05:00,29.4,26.0,29.89,NE,44,0.0,0.0,87,0.00,,,0.00,Wunderground v.1.15,2013-02-06 07:05:00,
2013-02-06 02:15:00,29.4,26.0,29.89,NE,44,0.0,0.0,87,0.00,,,0.00,Wunderground v.1.15,2013-02-06 07:15:00,
2013-02-06 02:25:00,29.4,26.0,29.88,NE,44,0.0,0.0,87,0.00,,,0.00,Wunderground v.1.15,2013-02-06 07:25:00,
2013-02-06 02:35:00,29.4,26.0,29.89,NE,44,0.0,0.0,87,0.00,,,0.00,Wunderground v.1.15,2013-02-06 07:35:00,
2013-02-06 02:45:00,29.4,26.0,29.89,NE,44,0.0,0.0,87,0.00,,,0.00,Wunderground v.1.15,2013-02-06 07:45:00,
2013-02-06 02:55:00,29.3,25.9,29.88,NE,44,0.0,0.0,87,0.00,,,0.00,Wunderground v.1.15,2013-02-06 07:55:00,
2013-02-06 03:05:00,29.3,25.9,29.88,NE,44,0.0,0.0,87,0.00,,,0.00,Wunderground v.1.15,2013-02-06 08:05:00,
2013-02-06 03:15:00,29.3,25.9,29.88,NE,44,0.0,0.0,87,0.00,,,0.00,Wunderground v.1.15,2013-02-06 08:15:00,
2013-02-06 03:25:00,29.1,25.7,29.88,NE,44,0.0,0.0,87,0.00,,,0.00,Wunderground v.1.15,2013-02-06 08:25:00,
2013-02-06 03:35:00,29.1,25.7,29.88,NE,44,0.0,0.0,87,0.00,,,0.00,Wunderground v.1.15,2013-02-06 08:35:00,
2013-02-06 03:45:00,29.1,25.7,29.88,NE,44,0.0,0.0,87,0.00,,,0.00,Wunderground v.1.15,2013-02-06 08:45:00,
2013-02-06 03:55:00,29.1,25.7,29.90,NE,44,0.0,0.0,87,0.00,,,0.00,Wunderground v.1.15,2013-02-06 08:55:00,
2013-02-06 04:05:00,29.0,25.6,29.90,NE,44,0.0,0.0,87,0.00,,,0.00,Wunderground v.1.15,2013-02-06 09:05:00,
2013-02-06 04:15:00,29.0,25.6,29.90,NE,44,0.0,0.0,87,0.00,,,0.00,Wunderground v.1.15,2013-02-06 09:15:00,
2013-02-06 04:25:00,29.0,25.6,29.90,NE,44,0.0,0.0,87,0.00,,,0.00,Wunderground v.1.15,2013-02-06 09:25:00,
2013-02-06 04:35:00,28.8,25.4,29.90,NE,44,0.0,0.0,87,0.00,,,0.00,Wunderground v.1.15,2013-02-06 09:35:00,
2013-02-06 04:45:00,28.8,25.4,29.90,NE,44,0.0,0.0,87,0.00,,,0.00,Wunderground v.1.15,2013-02-06 09:45:00,
2013-02-06 05:00:00,28.7,25.3,29.91,NE,44,0.0,0.0,87,0.00,,,0.00,Wunderground v.1.15,2013-02-06 10:00:00,
2013-02-06 05:05:00,28.7,25.3,29.91,NE,44,0.0,0.0,87,0.00,,,0.00,Wunderground v.1.15,2013-02-06 10:05:00,
2013-02-06 05:15:00,28.4,25.0,29.91,NE,44,0.0,0.0,87,0.00,,,0.00,Wunderground v.1.15,2013-02-06 10:15:00,
2013-02-06 05:20:00,28.4,25.0,29.92,NE,44,0.0,0.0,87,0.00,,,0.00,Wunderground v.1.15,2013-02-06 10:20:00,
2013-02-06 05:25:00,28.2,24.8,29.92,NE,44,0.0,0.0,87,0.00,,,0.00,Wunderground v.1.15,2013-02-06 10:25:00,
2013-02-06 05:35:00,27.9,24.5,29.93,NE,44,0.0,0.0,87,0.00,,,0.00,Wunderground v.1.15,2013-02-06 10:35:00,
2013-02-06 05:45:00,27.6,24.2,29.93,NE,44,0.0,0.0,87,0.00,,,0.00,Wunderground v.1.15,2013-02-06 10:45:00,
2013-02-06 05:55:00,27.5,24.1,29.94,NE,44,0.0,0.0,87,0.00,,,0.00,Wunderground v.1.15,2013-02-06 10:55:00,
2013-02-06 06:05:00,27.2,23.8,29.94,NE,44,0.0,0.0,87,0.00,,,0.00,Wunderground v.1.15,2013-02-06 11:05:00,
2013-02-06 06:15:00,26.9,23.5,29.94,NE,44,0.0,0.0,87,0.00,,,0.00,Wunderground v.1.15,2013-02-06 11:15:00,
2013-02-06 06:25:00,26.7,23.4,29.95,NE,44,0.0,0.0,87,0.00,,,0.00,Wunderground v.1.15,2013-02-06 11:25:00,
2013-02-06 06:35:00,26.6,23.3,29.96,NE,44,0.0,0.0,87,0.00,,,0.00,Wunderground v.1.15,2013-02-06 11:35:00,
2013-02-06 06:45:00,26.4,23.1,29.96,NE,44,0.0,0.0,87,0.00,,,0.00,Wunderground v.1.15,2013-02-06 11:45:00,
2013-02-06 06:55:00,26.1,22.8,29.96,NE,44,0.0,0.0,87,0.00,,,0.00,Wunderground v.1.15,2013-02-06 11:55:00,
2013-02-06 07:05:00,26.0,22.7,29.97,NE,44,0.0,0.0,87,0.00,,,0.00,Wunderground v.1.15,2013-02-06 12:05:00,
2013-02-06 07:15:00,25.8,22.5,29.97,NE,44,0.0,0.0,87,0.00,,,0.00,Wunderground v.1.15,2013-02-06 12:15:00,
2013-02-06 07:25:00,25.6,22.3,29.97,NE,44,0.0,0.0,87,0.00,,,0.00,Wunderground v.1.15,2013-02-06 12:25:00,
2013-02-06 07:35:00,25.4,22.1,29.99,NE,44,0.0,0.0,87,0.00,,,0.00,Wunderground v.1.15,2013-02-06 12:35:00,
2013-02-06 07:45:00,25.3,22.0,29.99,NE,44,0.0,0.0,87,0.00,,,0.00,Wunderground v.1.15,2013-02-06 12:45:00,
2013-02-06 07:55:00,25.3,22.0,30.00,NE,44,0.0,0.0,87,0.00,,,0.00,Wunderground v.1.15,2013-02-06 12:55:00,
2013-02-06 08:05:00,25.3,22.0,30.02,NE,44,0.0,0.0,87,0.00,,,0.00,Wunderground v.1.15,2013-02-06 13:05:00,
2013-02-06 08:15:00,25.4,22.1,30.02,NE,44,0.0,1.0,87,0.00,,,0.00,Wunderground v.1.15,2013-02-06 13:15:00,
2013-02-06 08:25:00,25.7,22.6,30.02,NE,44,0.0,0.0,88,0.00,,,0.00,Wunderground v.1.15,2013-02-06 13:25:00,
2013-02-06 08:35:00,26.1,23.0,30.02,NE,44,0.0,1.0,88,0.00,,,0.00,Wunderground v.1.15,2013-02-06 13:35:00,
2013-02-06 08:45:00,29.4,26.8,30.02,NW,321,1.0,1.0,90,0.00,,,0.00,Wunderground v.1.15,2013-02-06 13:45:00,
2013-02-06 08:55:00,31.2,28.3,30.03,WNW,298,1.0,1.0,89,0.00,,,0.00,Wunderground v.1.15,2013-02-06 13:55:00,
2013-02-06 09:05:00,31.9,27.9,30.02,WNW,288,1.0,2.0,85,0.00,,,0.00,Wunderground v.1.15,2013-02-06 14:05:00,
2013-02-06 09:15:00,32.7,27.5,30.02,NNE,31,2.0,4.0,81,0.00,,,0.00,Wunderground v.1.15,2013-02-06 14:15:00,
2013-02-06 09:25:00,33.2,26.1,30.02,WNW,298,2.0,9.0,75,0.00,,,0.00,Wunderground v.1.15,2013-02-06 14:25:00,
2013-02-06 09:35:00,33.7,25.0,30.03,North,355,3.0,3.0,70,0.00,,,0.00,Wunderground v.1.15,2013-02-06 14:35:00,
2013-02-06 09:45:00,34.1,24.3,30.03,West,272,3.0,5.0,67,0.00,,,0.00,Wunderground v.1.15,2013-02-06 14:45:00,
2013-02-06 09:50:00,34.3,23.7,30.04,WNW,284,3.0,3.0,65,0.00,,,0.00,Wunderground v.1.15,2013-02-06 14:50:00,
2013-02-06 09:55:00,34.6,24.0,30.04,WSW,254,3.0,6.0,65,0.00,,,0.00,Wunderground v.1.15,2013-02-06 14:55:00,
2013-02-06 10:05:00,35.3,24.3,30.05,ENE,65,3.0,3.0,64,0.00,,,0.00,Wunderground v.1.15,2013-02-06 15:05:00,
2013-02-06 10:15:00,36.5,24.7,30.05,NW,323,3.0,3.0,62,0.00,,,0.00,Wunderground v.1.15,2013-02-06 15:15:00,
2013-02-06 10:25:00,36.2,24.4,30.05,NNW,343,3.0,3.0,62,0.00,,,0.00,Wunderground v.1.15,2013-02-06 15:25:00,
2013-02-06 10:35:00,35.9,23.0,30.05,WNW,297,3.0,4.0,59,0.00,,,0.00,Wunderground v.1.15,2013-02-06 15:35:00,
2013-02-06 10:45:00,37.2,24.2,30.05,NNW,338,4.0,4.0,59,0.00,,,0.00,Wunderground v.1.15,2013-02-06 15:45:00,
2013-02-06 10:55:00,37.3,23.4,30.05,WNW,286,5.0,5.0,57,0.00,,,0.00,Wunderground v.1.15,2013-02-06 15:55:00,
2013-02-06 11:05:00,38.3,24.8,30.05,West,274,3.0,4.0,58,0.00,,,0.00,Wunderground v.1.15,2013-02-06 16:05:00,
2013-02-06 11:15:00,38.0,24.1,30.05,WSW,238,4.0,4.0,57,0.00,,,0.01,Wunderground v.1.15,2013-02-06 16:15:00,
2013-02-06 11:25:00,38.3,23.5,30.05,WNW,288,5.0,7.0,55,0.00,,,0.01,Wunderground v.1.15,2013-02-06 16:25:00,
2013-02-06 11:35:00,39.6,24.3,30.05,WNW,302,4.0,7.0,54,0.00,,,0.01,Wunderground v.1.15,2013-02-06 16:35:00,
2013-02-06 11:45:00,39.1,22.9,30.05,WNW,282,3.0,4.0,52,0.00,,,0.01,Wunderground v.1.15,2013-02-06 16:45:00,
2013-02-06 11:55:00,37.8,22.2,30.05,NW,304,3.0,5.0,53,0.00,,,0.02,Wunderground v.1.15,2013-02-06 16:55:00,
2013-02-06 12:05:00,36.9,21.8,30.05,West,281,3.0,4.0,54,0.00,,,0.02,Wunderground v.1.15,2013-02-06 17:05:00,
2013-02-06 12:15:00,37.8,21.7,30.05,West,269,3.0,4.0,52,0.00,,,0.02,Wunderground v.1.15,2013-02-06 17:15:00,
2013-02-06 12:25:00,37.0,20.5,30.05,North,355,4.0,4.0,51,0.00,,,0.02,Wunderground v.1.15,2013-02-06 17:25:00,
2013-02-06 12:35:00,36.8,20.3,30.05,WNW,282,4.0,9.0,51,0.00,,,0.02,Wunderground v.1.15,2013-02-06 17:35:00,
2013-02-06 12:45:00,36.6,21.5,30.05,NNW,344,4.0,5.0,54,0.00,,,0.02,Wunderground v.1.15,2013-02-06 17:45:00,
2013-02-06 12:55:00,36.9,22.2,30.06,NNW,330,1.0,2.0,55,0.00,,,0.02,Wunderground v.1.15,2013-02-06 17:55:00,
2013-02-06 13:05:00,37.2,21.6,30.05,NNW,340,3.0,5.0,53,0.00,,,0.02,Wunderground v.1.15,2013-02-06 18:05:00,
2013-02-06 13:15:00,37.6,22.0,30.05,NNW,333,2.0,3.0,53,0.00,,,0.02,Wunderground v.1.15,2013-02-06 18:15:00,
2013-02-06 13:25:00,37.8,21.7,30.06,NNW,329,4.0,4.0,52,0.00,,,0.02,Wunderground v.1.15,2013-02-06 18:25:00,
2013-02-06 13:35:00,37.8,22.2,30.06,West,281,3.0,5.0,53,0.00,,,0.02,Wunderground v.1.15,2013-02-06 18:35:00,
2013-02-06 13:45:00,38.5,20.5,30.06,NNE,18,5.0,5.0,48,0.00,,,0.02,Wunderground v.1.15,2013-02-06 18:45:00,
2013-02-06 13:55:00,40.1,19.9,30.06,NNW,329,3.0,3.0,44,0.00,,,0.02,Wunderground v.1.15,2013-02-06 18:55:00,
2013-02-06 14:05:00,39.6,19.5,30.06,WNW,300,5.0,7.0,44,0.00,,,0.02,Wunderground v.1.15,2013-02-06 19:05:00,
2013-02-06 14:15:00,39.2,19.1,30.06,NE,50,4.0,5.0,44,0.00,,,0.02,Wunderground v.1.15,2013-02-06 19:15:00,
2013-02-06 14:25:00,39.2,18.5,30.07,NW,321,4.0,4.0,43,0.00,,,0.02,Wunderground v.1.15,2013-02-06 19:25:00,
2013-02-06 14:35:00,38.9,19.3,30.07,WNW,288,3.0,5.0,45,0.00,,,0.02,Wunderground v.1.15,2013-02-06 19:35:00,
2013-02-06 14:45:00,38.5,19.0,30.07,NNW,342,4.0,4.0,45,0.00,,,0.02,Wunderground v.1.15,2013-02-06 19:45:00,
2013-02-06 14:55:00,38.8,18.2,30.08,NW,322,5.0,5.0,43,0.00,,,0.02,Wunderground v.1.15,2013-02-06 19:55:00,
2013-02-06 15:05:00,39.2,18.0,30.08,WNW,298,4.0,7.0,42,0.00,,,0.02,Wunderground v.1.15,2013-02-06 20:05:00,
2013-02-06 15:15:00,38.9,17.7,30.08,NW,310,5.0,10.0,42,0.00,,,0.02,Wunderground v.1.15,2013-02-06 20:15:00,
2013-02-06 15:25:00,39.1,19.0,30.08,North,360,4.0,4.0,44,0.00,,,0.02,Wunderground v.1.15,2013-02-06 20:25:00,
2013-02-06 15:35:00,38.9,18.3,30.09,West,264,3.0,7.0,43,0.00,,,0.02,Wunderground v.1.15,2013-02-06 20:35:00,
2013-02-06 15:45:00,38.5,18.4,30.09,West,275,4.0,4.0,44,0.00,,,0.02,Wunderground v.1.15,2013-02-06 20:45:00,
2013-02-06 15:55:00,38.0,18.0,30.10,NW,304,2.0,3.0,44,0.00,,,0.02,Wunderground v.1.15,2013-02-06 20:55:00,
2013-02-06 16:05:00,37.9,17.4,30.10,WNW,286,3.0,5.0,43,0.00,,,0.02,Wunderground v.1.15,2013-02-06 21:05:00,
2013-02-06 16:15:00,37.3,17.4,30.10,North,350,4.0,5.0,44,0.00,,,0.02,Wunderground v.1.15,2013-02-06 21:15:00,
2013-02-06 16:25:00,36.9,17.0,30.11,NW,310,3.0,5.0,44,0.00,,,0.02,Wunderground v.1.15,2013-02-06 21:25:00,
2013-02-06 16:35:00,36.8,16.4,30.12,North,360,4.0,4.0,43,0.00,,,0.02,Wunderground v.1.15,2013-02-06 21:35:00,
2013-02-06 16:45:00,36.6,16.2,30.12,NW,318,3.0,3.0,43,0.00,,,0.02,Wunderground v.1.15,2013-02-06 21:45:00,
2013-02-06 16:55:00,36.5,16.1,30.13,NNW,333,2.0,5.0,43,0.00,,,0.02,Wunderground v.1.15,2013-02-06 21:55:00,
2013-02-06 17:05:00,36.0,15.6,30.14,NNW,340,2.0,6.0,43,0.00,,,0.02,Wunderground v.1.15,2013-02-06 22:05:00,
2013-02-06 17:15:00,35.8,16.0,30.14,NW,325,2.0,4.0,44,0.00,,,0.02,Wunderground v.1.15,2013-02-06 22:15:00,
2013-02-06 17:25:00,35.5,15.2,30.14,NNW,343,3.0,4.0,43,0.00,,,0.02,Wunderground v.1.15,2013-02-06 22:25:00,
2013-02-06 17:35:00,35.2,15.4,30.15,NW,304,2.0,3.0,44,0.00,,,0.02,Wunderground v.1.15,2013-02-06 22:35:00,
2013-02-06 17:45:00,35.0,15.3,30.15,NW,317,3.0,6.0,44,0.00,,,0.02,Wunderground v.1.15,2013-02-06 22:45:00,
2013-02-06 17:55:00,34.7,15.5,30.16,NW,318,2.0,3.0,45,0.00,,,0.02,Wunderground v.1.15,2013-02-06 22:55:00,
2013-02-06 18:05:00,34.0,15.4,30.17,NNW,334,1.0,4.0,46,0.00,,,0.02,Wunderground v.1.15,2013-02-06 23:05:00,
2013-02-06 18:15:00,34.0,14.9,30.17,WNW,302,3.0,3.0,45,0.00,,,0.02,Wunderground v.1.15,2013-02-06 23:15:00,
2013-02-06 18:25:00,34.1,13.9,30.19,NNW,331,3.0,5.0,43,0.00,,,0.02,Wunderground v.1.15,2013-02-06 23:25:00,
2013-02-06 18:35:00,33.7,13.5,30.20,NW,315,2.0,2.0,43,0.00,,,0.02,Wunderground v.1.15,2013-02-06 23:35:00,
2013-02-06 18:45:00,33.2,14.1,30.20,NW,306,1.0,2.0,45,0.00,,,0.02,Wunderground v.1.15,2013-02-06 23:45:00,
2013-02-06 18:55:00,33.1,14.0,30.22,NW,321,1.0,6.0,45,0.00,,,0.02,Wunderground v.1.15,2013-02-06 23:55:00,
2013-02-06 19:05:00,33.1,13.0,30.22,NW,315,3.0,3.0,43,0.00,,,0.02,Wunderground v.1.15,2013-02-07 00:05:00,
2013-02-06 19:15:00,32.5,14.0,30.22,North,350,1.0,2.0,46,0.00,,,0.02,Wunderground v.1.15,2013-02-07 00:15:00,
2013-02-06 19:25:00,32.1,13.1,30.22,North,350,0.0,1.0,45,0.00,,,0.02,Wunderground v.1.15,2013-02-07 00:25:00,
2013-02-06 19:35:00,31.6,14.1,30.23,NNW,344,1.0,1.0,48,0.00,,,0.02,Wunderground v.1.15,2013-02-07 00:35:00,
2013-02-06 19:45:00,31.6,13.7,30.23,NW,325,1.0,2.0,47,0.00,,,0.02,Wunderground v.1.15,2013-02-07 00:45:00,
2013-02-06 19:55:00,31.8,13.3,30.24,NNW,341,2.0,3.0,46,0.00,,,0.02,Wunderground v.1.15,2013-02-07 00:55:00,
2013-02-06 20:06:00,31.6,13.7,30.25,NNE,15,2.0,2.0,47,0.00,,,0.02,Wunderground v.1.15,2013-02-07 01:06:00,
2013-02-06 20:15:00,31.3,12.9,30.25,NNW,348,2.0,2.0,46,0.00,,,0.02,Wunderground v.1.15,2013-02-07 01:15:00,
2013-02-06 20:25:00,31.2,11.8,30.26,NW,321,1.0,2.0,44,0.00,,,0.02,Wunderground v.1.15,2013-02-07 01:25:00,
2013-02-06 20:35:00,30.7,11.8,30.26,NNW,336,2.0,2.0,45,0.00,,,0.02,Wunderground v.1.15,2013-02-07 01:35:00,
2013-02-06 20:45:00,30.9,11.0,30.26,North,350,2.0,2.0,43,0.00,,,0.02,Wunderground v.1.15,2013-02-07 01:45:00,
2013-02-06 20:55:00,30.9,9.4,30.27,North,9,4.0,4.0,40,0.00,,,0.02,Wunderground v.1.15,2013-02-07 01:55:00,
2013-02-06 21:05:00,30.6,9.1,30.27,North,5,3.0,3.0,40,0.00,,,0.02,Wunderground v.1.15,2013-02-07 02:05:00,
2013-02-06 21:15:00,30.6,9.1,30.27,North,5,4.0,5.0,40,0.00,,,0.02,Wunderground v.1.15,2013-02-07 02:15:00,
2013-02-06 21:25:00,30.3,10.4,30.27,North,355,2.0,3.0,43,0.00,,,0.02,Wunderground v.1.15,2013-02-07 02:25:00,
2013-02-06 21:35:00,30.0,9.6,30.28,North,350,2.0,2.0,42,0.00,,,0.02,Wunderground v.1.15,2013-02-07 02:35:00,
2013-02-06 21:45:00,29.8,8.4,30.28,North,360,2.0,2.0,40,0.00,,,0.02,Wunderground v.1.15,2013-02-07 02:45:00,
2013-02-06 21:55:00,29.4,8.6,30.28,North,360,1.0,1.0,41,0.00,,,0.02,Wunderground v.1.15,2013-02-07 02:55:00,
2013-02-06 22:05:00,29.4,6.3,30.29,NE,53,2.0,2.0,37,0.00,,,0.02,Wunderground v.1.15,2013-02-07 03:05:00,
2013-02-06 22:15:00,29.1,6.6,30.29,NNW,340,1.0,1.0,38,0.00,,,0.02,Wunderground v.1.15,2013-02-07 03:15:00,
2013-02-06 22:25:00,28.7,6.3,30.30,NNE,19,1.0,1.0,38,0.00,,,0.02,Wunderground v.1.15,2013-02-07 03:25:00,
2013-02-06 22:35:00,28.5,6.1,30.30,NW,306,2.0,6.0,38,0.00,,,0.02,Wunderground v.1.15,2013-02-07 03:35:00,
2013-02-06 22:45:00,28.5,5.5,30.30,NNE,22,3.0,5.0,37,0.00,,,0.02,Wunderground v.1.15,2013-02-07 03:45:00,
2013-02-06 22:55:00,28.4,6.0,30.30,NNW,342,2.0,7.0,38,0.00,,,0.02,Wunderground v.1.15,2013-02-07 03:55:00,
2013-02-06 23:06:00,28.4,4.2,30.31,NNW,330,1.0,2.0,35,0.00,,,0.02,Wunderground v.1.15,2013-02-07 04:06:00,
2013-02-06 23:15:00,28.2,5.2,30.31,NNW,343,1.0,2.0,37,0.00,,,0.02,Wunderground v.1.15,2013-02-07 04:15:00,
2013-02-06 23:25:00,27.8,4.3,30.31,North,355,1.0,2.0,36,0.00,,,0.02,Wunderground v.1.15,2013-02-07 04:25:00,
2013-02-06 23:35:00,27.6,4.1,30.32,North,5,1.0,1.0,36,0.00,,,0.02,Wunderground v.1.15,2013-02-07 04:35:00,
2013-02-06 23:45:00,27.2,4.3,30.32,NNW,344,0.0,2.0,37,0.00,,,0.02,Wunderground v.1.15,2013-02-07 04:45:00,
2013-02-06 23:55:00,26.9,6.3,30.31,NNE,12,0.0,0.0,41,0.00,,,0.02,Wunderground v.1.15,2013-02-07 04:55:00,